createdAt,value
2022-10-22T08:38:04.014Z,388.12
2022-10-22T08:39:03.824Z,388.12
2022-10-22T08:40:03.829Z,376.88
2022-10-22T08:41:03.689Z,405.00
2022-10-22T08:42:03.838Z,416.25
2022-10-22T08:43:03.854Z,421.88
2022-10-22T08:44:03.653Z,433.12
2022-10-22T08:45:03.653Z,438.75
2022-10-22T08:46:03.648Z,427.50
2022-10-22T08:47:03.666Z,433.12
2022-10-22T08:48:03.662Z,455.62
2022-10-22T08:49:03.722Z,466.88
2022-10-22T08:50:03.686Z,455.62
2022-10-22T08:51:03.690Z,461.25
2022-10-22T08:52:03.697Z,478.12
2022-10-22T08:53:03.708Z,478.12
2022-10-22T08:54:03.716Z,455.62
2022-10-22T08:55:03.541Z,466.88
2022-10-22T08:56:03.520Z,478.12
2022-10-22T08:57:03.536Z,478.12
2022-10-22T08:58:03.550Z,489.38
2022-10-22T08:59:03.515Z,489.38
2022-10-22T09:00:03.550Z,483.75
2022-10-22T09:01:03.549Z,472.50
2022-10-22T09:02:03.579Z,466.88
2022-10-22T09:03:03.569Z,450.00
2022-10-22T09:04:03.554Z,444.38
2022-10-22T09:05:03.576Z,455.62
2022-10-22T09:06:03.588Z,444.38
2022-10-22T09:07:03.418Z,450.00
2022-10-22T09:08:03.414Z,455.62
2022-10-22T09:09:03.861Z,461.25
2022-10-22T09:10:03.397Z,466.88
2022-10-22T09:11:03.407Z,472.50
2022-10-22T09:12:03.409Z,489.38
2022-10-22T09:13:03.420Z,489.38
2022-10-22T09:14:03.554Z,500.62
2022-10-22T09:15:03.435Z,511.88
2022-10-22T09:16:03.433Z,511.88
2022-10-22T09:17:03.440Z,523.12
2022-10-22T09:18:03.470Z,545.62
2022-10-22T09:19:03.271Z,540.00
2022-10-22T09:20:03.367Z,568.12
2022-10-22T09:21:03.475Z,573.75
2022-10-22T09:22:03.718Z,590.62
2022-10-22T09:23:03.279Z,556.88
2022-10-22T09:24:03.303Z,613.12
2022-10-22T09:25:03.325Z,579.38
2022-10-22T09:26:03.304Z,669.38
2022-10-22T09:27:03.290Z,641.25
2022-10-22T09:28:03.313Z,568.12
2022-10-22T09:29:03.324Z,630.00
2022-10-22T09:30:03.546Z,686.25
2022-10-22T09:31:03.645Z,697.50
2022-10-22T09:32:03.335Z,691.88
2022-10-22T09:33:04.008Z,613.12
2022-10-22T09:34:03.360Z,540.00
2022-10-22T09:35:03.563Z,450.00
2022-10-22T09:36:03.156Z,618.75
2022-10-22T09:37:03.172Z,573.75
2022-10-22T09:38:03.393Z,517.50
2022-10-22T09:39:03.426Z,556.88
2022-10-22T09:40:03.584Z,607.50
2022-10-22T09:41:03.220Z,500.62
2022-10-22T09:42:03.208Z,523.12
2022-10-22T09:43:03.022Z,489.38
2022-10-22T09:44:03.025Z,540.00
2022-10-22T09:45:03.025Z,646.88
2022-10-22T09:46:03.017Z,641.25
2022-10-22T09:47:03.037Z,753.75
2022-10-22T09:48:03.291Z,697.50
2022-10-22T09:49:03.241Z,601.88
2022-10-22T09:50:03.045Z,691.88
2022-10-22T09:51:03.102Z,708.75
2022-10-22T09:52:03.288Z,635.62
2022-10-22T09:53:03.280Z,579.38
2022-10-22T09:54:03.068Z,635.62
2022-10-22T09:55:02.907Z,686.25
2022-10-22T09:56:02.882Z,646.88
2022-10-22T09:57:02.999Z,624.38
2022-10-22T09:58:02.905Z,703.12
2022-10-22T09:59:02.896Z,703.12
2022-10-22T10:00:03.108Z,821.25
2022-10-22T10:01:02.982Z,781.88
2022-10-22T10:02:13.633Z,646.88
2022-10-22T10:03:03.983Z,742.50
2022-10-22T10:04:06.953Z,787.50
2022-10-22T10:05:03.800Z,742.50
2022-10-22T10:06:05.839Z,641.25
2022-10-22T10:07:02.848Z,832.50
2022-10-22T10:08:02.765Z,821.25
2022-10-22T10:09:02.832Z,843.75
2022-10-22T10:10:02.774Z,849.38
2022-10-22T10:11:02.969Z,967.50
2022-10-22T10:12:02.796Z,1164.38
2022-10-22T10:13:02.812Z,1704.38
2022-10-22T10:14:02.837Z,1771.88
2022-10-22T10:15:02.799Z,1130.62
2022-10-22T10:16:02.810Z,1620.00
2022-10-22T10:17:03.022Z,2559.38
2022-10-22T10:18:02.830Z,2480.62
2022-10-22T10:19:03.050Z,2306.25
2022-10-22T10:20:04.057Z,1963.12
2022-10-22T10:21:02.703Z,2553.75
2022-10-22T10:22:02.851Z,2818.12
2022-10-22T10:23:02.653Z,2863.12
2022-10-22T10:24:03.066Z,2981.25
2022-10-22T10:25:02.651Z,2677.50
2022-10-22T10:26:02.684Z,714.38
2022-10-22T10:27:02.883Z,793.12
2022-10-22T10:28:02.678Z,3166.88
2022-10-22T10:29:02.695Z,3031.88
2022-10-22T10:30:02.524Z,3003.75
2022-10-22T10:31:02.708Z,2728.12
2022-10-22T10:32:02.501Z,624.38
2022-10-22T10:33:02.513Z,646.88
2022-10-22T10:34:02.733Z,776.25
2022-10-22T10:35:02.722Z,2413.12
2022-10-22T10:36:02.925Z,568.12
2022-10-22T10:37:02.542Z,2452.50
2022-10-22T10:38:02.540Z,3144.38
2022-10-22T10:39:02.546Z,3189.38
2022-10-22T10:40:02.757Z,1091.25
2022-10-22T10:41:02.764Z,646.88
2022-10-22T10:42:02.775Z,663.75
2022-10-22T10:43:02.401Z,2508.75
2022-10-22T10:44:02.589Z,804.38
2022-10-22T10:45:02.377Z,1468.12
2022-10-22T10:46:02.388Z,860.62
2022-10-22T10:47:02.388Z,680.62
2022-10-22T10:48:02.393Z,1057.50
2022-10-22T10:49:02.321Z,905.62
2022-10-22T10:50:02.316Z,601.88
2022-10-22T10:51:02.333Z,624.38
2022-10-22T10:52:02.585Z,641.25
2022-10-22T10:53:02.390Z,1175.62
2022-10-22T10:54:02.644Z,3420.00
2022-10-22T10:55:02.851Z,3442.50
2022-10-22T10:56:02.264Z,3217.50
2022-10-22T10:57:02.244Z,2655.00
2022-10-22T10:58:02.251Z,545.62
2022-10-22T10:59:02.338Z,500.62
2022-10-22T11:00:02.395Z,613.12
2022-10-22T11:01:02.577Z,590.62
2022-10-22T11:02:02.189Z,523.12
2022-10-22T11:03:02.307Z,472.50
2022-10-22T11:04:02.358Z,433.12
2022-10-22T11:05:02.264Z,450.00
2022-10-22T11:06:02.209Z,472.50
2022-10-22T11:07:11.171Z,658.12
2022-10-22T11:08:03.124Z,1063.12
2022-10-22T11:09:02.165Z,658.12
2022-10-22T11:10:02.159Z,770.62
2022-10-22T11:11:02.211Z,1254.38
2022-10-22T11:12:02.097Z,3223.12
2022-10-22T11:13:02.329Z,2559.38
2022-10-22T11:14:02.108Z,1040.62
2022-10-22T11:15:02.233Z,815.62
2022-10-22T11:16:02.333Z,478.12
2022-10-22T11:17:02.383Z,365.62
2022-10-22T11:18:02.028Z,309.38
2022-10-22T11:19:01.995Z,315.00
2022-10-22T11:20:02.028Z,292.50
2022-10-22T11:21:02.002Z,275.62
2022-10-22T11:22:02.006Z,303.75
2022-10-22T11:23:18.984Z,343.12
2022-10-22T11:24:02.948Z,410.62
2022-10-22T11:25:02.186Z,455.62
2022-10-22T11:26:01.917Z,483.75
2022-10-22T11:27:01.975Z,556.88
2022-10-22T11:28:07.845Z,596.25
2022-10-22T11:29:02.975Z,2413.12
2022-10-22T11:30:01.979Z,838.12
2022-10-22T11:31:01.874Z,736.88
2022-10-22T11:32:01.862Z,590.62
2022-10-22T11:33:01.911Z,472.50
2022-10-22T11:34:15.269Z,421.88
2022-10-22T11:35:03.189Z,433.12
2022-10-22T11:36:01.848Z,472.50
2022-10-22T11:37:01.876Z,545.62
2022-10-22T11:38:02.446Z,652.50
2022-10-22T11:39:01.805Z,849.38
2022-10-22T11:40:01.787Z,916.88
2022-10-22T11:41:01.819Z,3161.25
2022-10-22T11:42:01.737Z,3487.50
2022-10-22T11:43:01.827Z,2188.12
2022-10-22T11:44:01.913Z,1839.38
2022-10-22T11:45:01.958Z,2413.12
2022-10-22T11:46:01.739Z,1029.38
2022-10-22T11:47:01.769Z,1192.50
2022-10-22T11:48:01.767Z,1035.00
2022-10-22T11:49:01.667Z,843.75
2022-10-22T11:50:01.898Z,950.62
2022-10-22T11:51:01.780Z,990.00
2022-10-22T11:52:04.347Z,900.00
2022-10-22T11:53:02.244Z,1102.50
2022-10-22T11:54:01.808Z,1749.38
2022-10-22T11:55:01.608Z,1513.12
2022-10-22T11:56:01.610Z,1648.12
2022-10-22T11:57:01.617Z,1068.75
2022-10-22T11:58:02.232Z,2953.12
2022-10-22T11:59:01.627Z,3656.25
2022-10-22T12:00:02.050Z,2846.25
2022-10-22T12:01:01.677Z,1400.62
2022-10-22T12:02:02.474Z,1130.62
2022-10-22T12:03:01.668Z,3723.75
2022-10-22T12:04:01.881Z,1040.62
2022-10-22T12:05:01.951Z,3245.62
2022-10-22T12:06:01.607Z,3082.50
2022-10-22T12:07:01.582Z,2469.38
2022-10-22T12:08:01.974Z,1265.62
2022-10-22T12:09:01.899Z,646.88
2022-10-22T12:10:01.549Z,641.25
2022-10-22T12:11:01.628Z,1293.75
2022-10-22T12:12:01.608Z,720.00
2022-10-22T12:13:01.433Z,2953.12
2022-10-22T12:14:01.479Z,2463.75
2022-10-22T12:15:01.853Z,2250.00
2022-10-22T12:16:01.497Z,1338.75
2022-10-22T12:17:01.646Z,1811.25
2022-10-22T12:18:01.432Z,866.25
2022-10-22T12:19:01.522Z,725.62
2022-10-22T12:20:02.438Z,883.12
2022-10-22T12:21:01.356Z,438.75
2022-10-22T12:22:01.317Z,376.88
2022-10-22T12:23:01.334Z,337.50
2022-10-22T12:24:01.371Z,326.25
2022-10-22T12:25:01.355Z,292.50
2022-10-22T12:26:01.428Z,247.50
2022-10-22T12:27:01.384Z,213.75
2022-10-22T12:28:01.297Z,196.88
2022-10-22T12:29:01.400Z,180.00
2022-10-22T12:30:01.844Z,168.75
2022-10-22T12:31:01.379Z,163.12
2022-10-22T12:32:01.694Z,157.50
2022-10-22T12:33:01.248Z,157.50
2022-10-22T12:34:01.296Z,157.50
2022-10-22T12:35:01.370Z,151.88
2022-10-22T12:36:01.399Z,146.25
2022-10-22T12:37:01.151Z,146.25
2022-10-22T12:38:01.818Z,146.25
2022-10-22T12:39:01.248Z,140.62
2022-10-22T12:40:01.169Z,135.00
2022-10-22T12:41:01.190Z,123.75
2022-10-22T12:42:01.294Z,118.12
2022-10-22T12:43:01.569Z,118.12
2022-10-22T12:44:01.290Z,129.38
2022-10-22T12:45:01.295Z,135.00
2022-10-22T12:46:01.536Z,135.00
2022-10-22T12:47:01.172Z,140.62
2022-10-22T12:48:01.193Z,146.25
2022-10-22T12:49:01.274Z,146.25
2022-10-22T12:50:01.089Z,163.12
2022-10-22T12:51:01.385Z,180.00
2022-10-22T12:52:01.003Z,191.25
2022-10-22T12:53:01.403Z,191.25
2022-10-22T12:54:01.477Z,208.12
2022-10-22T12:55:00.984Z,236.25
2022-10-22T12:56:01.123Z,292.50
2022-10-22T12:57:01.375Z,376.88
2022-10-22T12:58:01.008Z,444.38
2022-10-22T12:59:00.995Z,500.62
2022-10-22T13:01:01.032Z,545.62
2022-10-22T13:02:01.005Z,545.62
2022-10-22T13:03:01.045Z,562.50
2022-10-22T13:04:00.925Z,568.12
2022-10-22T13:05:00.951Z,585.00
2022-10-22T13:06:00.878Z,573.75
2022-10-22T13:07:00.873Z,551.25
2022-10-22T13:08:00.894Z,545.62
2022-10-22T13:09:01.396Z,540.00
2022-10-22T13:10:01.140Z,545.62
2022-10-22T13:11:00.974Z,585.00
2022-10-22T13:12:01.165Z,551.25
2022-10-22T13:13:01.711Z,506.25
2022-10-22T13:14:00.958Z,466.88
2022-10-22T13:15:00.781Z,405.00
2022-10-22T13:16:00.780Z,348.75
2022-10-22T13:17:00.841Z,326.25
2022-10-22T13:18:01.078Z,320.62
2022-10-22T13:19:00.767Z,286.88
2022-10-22T13:20:00.778Z,258.75
2022-10-22T13:21:00.706Z,247.50
2022-10-22T13:22:01.552Z,247.50
2022-10-22T13:23:00.668Z,236.25
2022-10-22T13:24:00.896Z,213.75
2022-10-22T13:25:00.668Z,191.25
2022-10-22T13:26:01.003Z,180.00
2022-10-22T13:27:00.676Z,185.62
2022-10-22T13:28:00.693Z,185.62
2022-10-22T13:29:00.687Z,168.75
2022-10-22T13:30:01.199Z,151.88
2022-10-22T13:31:00.630Z,129.38
2022-10-22T13:32:00.677Z,118.12
2022-10-22T13:33:00.717Z,106.88
2022-10-22T13:34:02.462Z,106.88
2022-10-22T13:35:00.744Z,101.25
2022-10-22T13:36:00.530Z,95.62
2022-10-22T13:37:00.652Z,106.88
2022-10-22T13:38:00.632Z,106.88
2022-10-22T13:39:00.534Z,123.75
2022-10-22T13:40:00.581Z,129.38
2022-10-22T13:41:00.457Z,123.75
2022-10-22T13:42:00.482Z,129.38
2022-10-22T13:43:00.528Z,151.88
2022-10-22T13:44:00.465Z,168.75
2022-10-22T13:45:00.447Z,168.75
2022-10-22T13:46:00.436Z,196.88
2022-10-22T13:47:00.477Z,258.75
2022-10-22T13:48:00.454Z,292.50
2022-10-22T13:49:00.438Z,264.38
2022-10-22T13:50:00.490Z,225.00
2022-10-22T13:51:00.435Z,225.00
2022-10-22T13:52:00.438Z,225.00
2022-10-22T13:53:00.421Z,225.00
2022-10-22T13:54:00.339Z,208.12
2022-10-22T13:55:00.461Z,174.38
2022-10-22T13:56:00.353Z,146.25
2022-10-22T13:57:00.363Z,135.00
2022-10-22T13:58:00.371Z,135.00
2022-10-22T13:59:00.371Z,135.00
2022-10-22T14:00:00.373Z,135.00
2022-10-22T14:01:00.502Z,140.62
2022-10-22T14:02:00.424Z,157.50
2022-10-22T14:03:00.246Z,180.00
2022-10-22T14:04:00.307Z,191.25
2022-10-22T14:05:00.236Z,196.88
2022-10-22T14:06:00.256Z,208.12
2022-10-22T14:07:02.873Z,236.25
2022-10-22T14:08:00.261Z,258.75
2022-10-22T14:09:00.305Z,236.25
2022-10-22T14:10:00.203Z,202.50
2022-10-22T14:11:00.940Z,185.62
2022-10-22T14:12:00.214Z,168.75
2022-10-22T14:13:00.131Z,151.88
2022-10-22T14:14:00.267Z,140.62
2022-10-22T14:15:00.292Z,129.38
2022-10-22T14:16:00.129Z,129.38
2022-10-22T14:17:00.165Z,123.75
2022-10-22T14:18:00.106Z,112.50
2022-10-22T14:19:00.263Z,101.25
2022-10-22T14:20:00.209Z,101.25
2022-10-22T14:21:00.273Z,95.62
2022-10-22T14:22:00.106Z,95.62
2022-10-22T14:23:00.394Z,90.00
2022-10-22T14:24:00.020Z,90.00
2022-10-22T14:25:00.034Z,84.38
2022-10-22T14:26:00.237Z,84.38
2022-10-22T14:26:59.966Z,84.38
2022-10-22T14:28:00.012Z,84.38
2022-10-22T14:29:15.448Z,84.38
2022-10-22T14:30:01.196Z,95.62
2022-10-22T14:30:59.905Z,95.62
2022-10-22T14:31:59.938Z,106.88
2022-10-22T14:32:59.988Z,140.62
2022-10-22T14:34:00.191Z,174.38
2022-10-22T14:34:59.924Z,196.88
2022-10-22T14:36:00.206Z,236.25
2022-10-22T14:36:59.994Z,253.12
2022-10-22T14:38:00.166Z,225.00
2022-10-22T14:38:59.986Z,191.25
2022-10-22T14:40:00.192Z,168.75
2022-10-22T14:41:00.130Z,146.25
2022-10-22T14:41:59.875Z,135.00
2022-10-22T14:42:59.939Z,135.00
2022-10-22T14:44:00.055Z,151.88
2022-10-22T14:44:59.867Z,180.00
2022-10-22T14:45:59.875Z,208.12
2022-10-22T14:46:59.838Z,236.25
2022-10-22T14:47:59.903Z,225.00
2022-10-22T14:49:00.272Z,230.62
2022-10-22T14:50:00.157Z,230.62
2022-10-22T14:50:59.743Z,236.25
2022-10-22T14:51:59.727Z,236.25
2022-10-22T14:52:59.708Z,236.25
2022-10-22T14:53:59.751Z,230.62
2022-10-22T14:54:59.783Z,208.12
2022-10-22T14:55:59.824Z,174.38
2022-10-22T14:56:59.800Z,151.88
2022-10-22T14:57:59.806Z,135.00
2022-10-22T14:58:59.636Z,123.75
2022-10-22T15:00:00.086Z,123.75
2022-10-22T15:00:59.742Z,123.75
2022-10-22T15:02:00.444Z,129.38
2022-10-22T15:03:03.302Z,123.75
2022-10-22T15:03:59.894Z,123.75
2022-10-22T15:04:59.897Z,118.12
2022-10-22T15:05:59.604Z,118.12
2022-10-22T15:06:59.676Z,118.12
2022-10-22T15:07:59.563Z,112.50
2022-10-22T15:08:59.730Z,95.62
2022-10-22T15:09:59.778Z,90.00
2022-10-22T15:10:59.616Z,90.00
2022-10-22T15:11:59.531Z,90.00
2022-10-22T15:12:59.497Z,90.00
2022-10-22T15:13:59.495Z,90.00
2022-10-22T15:14:59.580Z,84.38
2022-10-22T15:15:59.440Z,78.75
2022-10-22T15:16:59.567Z,73.12
2022-10-22T15:17:59.533Z,67.50
2022-10-22T15:18:59.696Z,67.50
2022-10-22T15:19:59.483Z,67.50
2022-10-22T15:20:59.930Z,67.50
2022-10-22T15:21:59.882Z,67.50
2022-10-22T15:22:59.494Z,61.88
2022-10-22T15:23:59.409Z,50.62
2022-10-22T15:24:59.854Z,50.62
2022-10-22T15:25:59.385Z,50.62
2022-10-22T15:26:59.554Z,45.00
2022-10-22T15:28:02.035Z,45.00
2022-10-22T15:29:00.340Z,39.38
2022-10-22T15:29:59.516Z,33.75
2022-10-22T15:30:59.323Z,28.12
2022-10-22T15:32:00.772Z,28.12
2022-10-22T15:32:59.335Z,22.50
2022-10-22T15:34:01.744Z,22.50
2022-10-22T15:34:59.376Z,16.88
2022-10-22T15:35:59.534Z,16.88
2022-10-22T15:36:59.530Z,16.88
2022-10-22T15:37:59.234Z,16.88
2022-10-22T15:38:59.211Z,16.88
2022-10-22T15:39:59.221Z,16.88
2022-10-22T15:41:01.646Z,16.88
2022-10-22T15:42:00.424Z,16.88
2022-10-22T15:42:59.234Z,16.88
2022-10-22T15:43:59.337Z,16.88
2022-10-22T15:44:59.151Z,16.88
2022-10-22T15:45:59.216Z,11.25
2022-10-22T15:46:59.265Z,11.25
2022-10-22T15:47:59.105Z,11.25
2022-10-22T15:48:59.255Z,11.25
2022-10-22T15:49:59.251Z,11.25
2022-10-22T15:50:59.461Z,11.25
2022-10-22T15:51:59.256Z,11.25
2022-10-22T15:52:59.181Z,11.25
2022-10-22T15:53:59.056Z,11.25
2022-10-22T15:54:59.333Z,11.25
2022-10-22T15:55:59.195Z,11.25
2022-10-22T15:56:59.498Z,11.25
2022-10-22T15:58:01.823Z,11.25
2022-10-22T15:59:00.131Z,11.25
2022-10-22T15:59:59.518Z,11.25
2022-10-22T16:00:59.161Z,11.25
2022-10-22T16:01:58.995Z,11.25
2022-10-22T16:02:59.068Z,11.25
2022-10-22T16:03:58.953Z,11.25
2022-10-22T16:04:58.993Z,11.25
2022-10-22T16:05:58.947Z,11.25
2022-10-22T16:06:58.906Z,11.25
2022-10-22T16:07:59.109Z,11.25
2022-10-22T16:08:59.037Z,11.25
2022-10-22T16:09:58.999Z,11.25
2022-10-22T16:10:58.921Z,11.25
2022-10-22T16:11:58.844Z,5.62
2022-10-22T16:12:58.898Z,5.62
2022-10-22T16:13:59.176Z,5.62
2022-10-22T16:14:59.005Z,5.62
2022-10-22T16:15:58.807Z,5.62
2022-10-22T16:16:58.807Z,5.62
2022-10-22T16:17:58.798Z,5.62
2022-10-22T16:18:58.780Z,5.62
2022-10-22T16:19:58.827Z,5.62
2022-10-22T16:20:58.811Z,5.62
2022-10-22T16:21:58.818Z,5.62
2022-10-22T16:22:59.107Z,0.00
2022-10-22T16:24:03.803Z,0.00
2022-10-22T16:24:59.900Z,0.00
2022-10-22T16:25:58.863Z,0.00
2022-10-22T16:26:58.754Z,0.00
2022-10-22T16:27:58.670Z,0.00
2022-10-22T16:28:58.711Z,0.00
2022-10-22T16:29:58.658Z,0.00
2022-10-22T16:30:59.101Z,0.00
2022-10-22T16:31:59.103Z,0.00
2022-10-22T16:32:58.633Z,0.00
2022-10-22T16:33:58.872Z,0.00
2022-10-22T16:34:58.643Z,0.00
2022-10-22T16:35:58.815Z,0.00
2022-10-22T16:36:58.726Z,0.00
2022-10-22T16:37:58.939Z,0.00
2022-10-22T16:38:58.548Z,0.00
2022-10-22T16:39:58.593Z,0.00
2022-10-22T16:40:58.544Z,0.00
2022-10-22T16:41:58.561Z,0.00
2022-10-22T16:42:58.572Z,0.00
2022-10-22T16:43:58.497Z,0.00
2022-10-22T16:44:58.509Z,0.00
2022-10-22T16:45:58.595Z,0.00
2022-10-22T16:46:58.576Z,0.00
2022-10-22T16:47:58.634Z,0.00
2022-10-22T16:48:58.613Z,0.00
2022-10-22T16:49:58.481Z,0.00
2022-10-22T16:50:58.429Z,0.00
2022-10-22T16:51:58.436Z,0.00
2022-10-22T16:52:58.448Z,0.00
2022-10-22T16:53:58.464Z,0.00
2022-10-22T16:54:58.420Z,0.00
2022-10-22T16:55:58.418Z,0.00
2022-10-22T16:56:58.418Z,0.00
2022-10-22T16:57:58.402Z,0.00
2022-10-22T16:58:58.444Z,0.00
2022-10-22T16:59:58.421Z,0.00
2022-10-22T17:00:58.427Z,0.00
2022-10-22T17:01:58.491Z,0.00
2022-10-22T17:02:58.411Z,0.00
2022-10-22T17:03:58.289Z,0.00
2022-10-22T17:04:58.406Z,0.00
2022-10-22T17:05:58.443Z,0.00
2022-10-22T17:06:58.501Z,0.00
2022-10-22T17:07:58.250Z,0.00
2022-10-22T17:08:58.653Z,0.00
2022-10-22T17:09:58.302Z,0.00
2022-10-22T17:10:58.283Z,0.00
2022-10-22T17:11:58.329Z,0.00
2022-10-22T17:12:58.511Z,0.00
2022-10-22T17:13:58.739Z,0.00
2022-10-22T17:14:58.509Z,0.00
2022-10-22T17:15:58.161Z,0.00
2022-10-22T17:16:58.210Z,0.00
2022-10-22T17:17:58.194Z,0.00
2022-10-22T17:18:58.201Z,0.00
2022-10-22T17:19:58.264Z,0.00
2022-10-22T17:20:58.111Z,0.00
2022-10-22T17:21:58.093Z,0.00
2022-10-22T17:22:58.221Z,0.00
2022-10-22T17:23:58.194Z,0.00
2022-10-22T17:24:58.249Z,0.00
2022-10-22T17:25:58.080Z,0.00
2022-10-22T17:26:58.180Z,0.00
2022-10-22T17:27:58.232Z,0.00
2022-10-22T17:28:58.362Z,0.00
2022-10-22T17:29:58.387Z,0.00
2022-10-22T17:30:58.227Z,0.00
2022-10-22T17:31:58.328Z,0.00
2022-10-22T17:32:58.077Z,0.00
2022-10-22T17:33:58.079Z,0.00
2022-10-22T17:34:58.094Z,0.00
2022-10-22T17:35:58.098Z,0.00
2022-10-22T17:36:58.108Z,0.00
2022-10-22T17:37:58.035Z,0.00
2022-10-22T17:38:58.332Z,0.00
2022-10-22T17:39:58.035Z,0.00
2022-10-22T17:40:59.895Z,0.00
2022-10-22T17:41:57.977Z,0.00
2022-10-22T17:42:58.230Z,0.00
2022-10-22T17:43:58.010Z,0.00
2022-10-22T17:44:58.092Z,0.00
2022-10-22T17:45:57.871Z,0.00
2022-10-22T17:46:57.868Z,0.00
2022-10-22T17:47:57.928Z,0.00
2022-10-22T17:48:58.602Z,0.00
2022-10-22T17:49:58.051Z,0.00
2022-10-22T17:50:59.234Z,0.00
2022-10-22T17:51:57.985Z,0.00
2022-10-22T17:52:57.813Z,0.00
2022-10-22T17:53:57.926Z,0.00
2022-10-22T17:54:57.760Z,0.00
2022-10-22T17:55:58.774Z,0.00
2022-10-22T17:56:57.851Z,0.00
2022-10-22T17:57:57.760Z,0.00
2022-10-22T17:58:57.706Z,0.00
2022-10-22T17:59:57.711Z,0.00
2022-10-22T18:00:57.859Z,0.00
2022-10-22T18:02:00.097Z,0.00
2022-10-22T18:02:57.785Z,0.00
2022-10-22T18:03:57.844Z,0.00
2022-10-22T18:04:57.888Z,0.00
2022-10-22T18:05:57.679Z,0.00
2022-10-22T18:06:57.666Z,0.00
2022-10-22T18:07:57.944Z,0.00
2022-10-22T18:08:57.597Z,0.00
2022-10-22T18:09:57.856Z,0.00
2022-10-22T18:10:57.735Z,0.00
2022-10-22T18:11:57.923Z,0.00
2022-10-22T18:12:57.551Z,0.00
2022-10-22T18:13:57.777Z,0.00
2022-10-22T18:14:57.542Z,0.00
2022-10-22T18:15:58.063Z,0.00
2022-10-22T18:16:57.521Z,0.00
2022-10-22T18:17:57.523Z,0.00
2022-10-22T18:18:57.596Z,0.00
2022-10-22T18:19:57.647Z,0.00
2022-10-22T18:20:57.557Z,0.00
2022-10-22T18:21:57.461Z,0.00
2022-10-22T18:22:57.429Z,0.00
2022-10-22T18:23:58.034Z,0.00
2022-10-22T18:24:58.366Z,0.00
2022-10-22T18:25:57.391Z,0.00
2022-10-22T18:26:58.137Z,0.00
2022-10-22T18:27:57.414Z,0.00
2022-10-22T18:28:58.966Z,0.00
2022-10-22T18:29:57.456Z,0.00
2022-10-22T18:30:57.340Z,0.00
2022-10-22T18:31:57.469Z,0.00
2022-10-22T18:32:57.400Z,0.00
2022-10-22T18:33:57.403Z,0.00
2022-10-22T18:34:57.396Z,0.00
2022-10-22T18:35:57.313Z,0.00
2022-10-22T18:36:57.303Z,0.00
2022-10-22T18:37:57.313Z,0.00
2022-10-22T18:38:57.335Z,0.00
2022-10-22T18:39:57.314Z,0.00
2022-10-22T18:40:57.345Z,0.00
2022-10-22T18:41:57.323Z,0.00
2022-10-22T18:42:57.507Z,0.00
2022-10-22T18:43:57.217Z,0.00
2022-10-22T18:44:57.520Z,0.00
2022-10-22T18:45:57.529Z,0.00
2022-10-22T18:46:57.335Z,0.00
2022-10-22T18:47:57.335Z,0.00
2022-10-22T18:48:57.167Z,0.00
2022-10-22T18:49:57.410Z,0.00
2022-10-22T18:50:57.524Z,0.00
2022-10-22T18:51:57.176Z,0.00
2022-10-22T18:52:57.383Z,0.00
2022-10-22T18:54:05.793Z,0.00
2022-10-22T18:54:58.100Z,0.00
2022-10-22T18:55:57.088Z,0.00
2022-10-22T18:56:59.342Z,0.00
2022-10-22T18:57:57.091Z,0.00
2022-10-22T18:58:57.043Z,0.00
2022-10-22T18:59:59.296Z,0.00
2022-10-22T19:00:57.163Z,0.00
2022-10-22T19:01:57.027Z,0.00
2022-10-22T19:02:57.010Z,0.00
2022-10-22T19:03:57.004Z,0.00
2022-10-22T19:04:56.992Z,0.00
2022-10-22T19:05:57.525Z,0.00
2022-10-22T19:06:57.000Z,0.00
2022-10-22T19:07:56.959Z,0.00
2022-10-22T19:08:56.966Z,0.00
2022-10-22T19:09:56.931Z,0.00
2022-10-22T19:10:56.935Z,0.00
2022-10-22T19:11:56.977Z,0.00
2022-10-22T19:12:56.883Z,0.00
2022-10-22T19:13:56.890Z,0.00
2022-10-22T19:14:56.927Z,0.00
2022-10-22T19:15:56.877Z,0.00
2022-10-22T19:16:56.877Z,0.00
2022-10-22T19:17:56.844Z,0.00
2022-10-22T19:18:56.850Z,0.00
2022-10-22T19:19:56.899Z,0.00
2022-10-22T19:20:56.818Z,0.00
2022-10-22T19:21:56.791Z,0.00
2022-10-22T19:22:56.778Z,0.00
2022-10-22T19:23:56.915Z,0.00
2022-10-22T19:24:56.776Z,0.00
2022-10-22T19:25:56.799Z,0.00
2022-10-22T19:26:56.759Z,0.00
2022-10-22T19:27:56.734Z,0.00
2022-10-22T19:28:56.785Z,0.00
2022-10-22T19:29:56.717Z,0.00
2022-10-22T19:30:56.699Z,0.00
2022-10-22T19:31:56.734Z,0.00
2022-10-22T19:32:56.676Z,0.00
2022-10-22T19:33:56.673Z,0.00
2022-10-22T19:34:56.666Z,0.00
2022-10-22T19:35:56.654Z,0.00
2022-10-22T19:36:56.643Z,0.00
2022-10-22T19:37:56.629Z,0.00
2022-10-22T19:38:56.597Z,0.00
2022-10-22T19:39:56.599Z,0.00
2022-10-22T19:40:56.613Z,0.00
2022-10-22T19:41:56.574Z,0.00
2022-10-22T19:42:56.640Z,0.00
2022-10-22T19:43:56.555Z,0.00
2022-10-22T19:44:56.568Z,0.00
2022-10-22T19:45:56.542Z,0.00
2022-10-22T19:46:56.539Z,0.00
2022-10-22T19:47:56.536Z,0.00
2022-10-22T19:48:57.978Z,0.00
2022-10-22T19:49:56.493Z,0.00
2022-10-22T19:50:56.513Z,0.00
2022-10-22T19:51:56.546Z,0.00
2022-10-22T19:52:56.488Z,0.00
2022-10-22T19:53:56.468Z,0.00
2022-10-22T19:54:56.459Z,0.00
2022-10-22T19:55:56.550Z,0.00
2022-10-22T19:56:56.458Z,0.00
2022-10-22T19:57:56.416Z,0.00
2022-10-22T19:58:56.409Z,0.00
2022-10-22T19:59:56.434Z,0.00
2022-10-22T20:00:56.453Z,0.00
2022-10-22T20:01:56.378Z,0.00
2022-10-22T20:02:56.357Z,0.00
2022-10-22T20:03:56.360Z,0.00
2022-10-22T20:04:56.387Z,0.00
2022-10-22T20:05:56.341Z,0.00
2022-10-22T20:06:56.323Z,0.00
2022-10-22T20:07:56.325Z,0.00
2022-10-22T20:08:56.500Z,0.00
2022-10-22T20:09:56.285Z,0.00
2022-10-22T20:10:56.286Z,0.00
2022-10-22T20:11:56.309Z,0.00
2022-10-22T20:12:56.254Z,0.00
2022-10-22T20:13:56.247Z,0.00
2022-10-22T20:14:56.232Z,0.00
2022-10-22T20:15:56.217Z,0.00
2022-10-22T20:16:56.238Z,0.00
2022-10-22T20:17:56.218Z,0.00
2022-10-22T20:18:56.231Z,0.00
2022-10-22T20:19:56.165Z,0.00
2022-10-22T20:20:56.209Z,0.00
2022-10-22T20:21:56.225Z,0.00
2022-10-22T20:22:56.154Z,0.00
2022-10-22T20:23:56.154Z,0.00
2022-10-22T20:24:56.126Z,0.00
2022-10-22T20:25:56.124Z,0.00
2022-10-22T20:26:56.120Z,0.00
2022-10-22T20:27:56.090Z,0.00
2022-10-22T20:28:56.090Z,0.00
2022-10-22T20:29:56.188Z,0.00
2022-10-22T20:30:56.441Z,0.00
2022-10-22T20:31:56.049Z,0.00
2022-10-22T20:32:56.087Z,0.00
2022-10-22T20:33:56.032Z,0.00
2022-10-22T20:34:56.188Z,0.00
2022-10-22T20:35:56.005Z,0.00
2022-10-22T20:36:56.009Z,0.00
2022-10-22T20:37:56.002Z,0.00
2022-10-22T20:38:55.976Z,0.00
2022-10-22T20:39:56.103Z,0.00
2022-10-22T20:40:55.951Z,0.00
2022-10-22T20:41:55.936Z,0.00
2022-10-22T20:42:56.876Z,0.00
2022-10-22T20:43:55.922Z,0.00
2022-10-22T20:44:55.903Z,0.00
2022-10-22T20:45:55.901Z,0.00
2022-10-22T20:48:02.157Z,0.00
2022-10-22T20:48:56.856Z,0.00
2022-10-22T20:49:55.880Z,0.00
2022-10-22T20:50:55.854Z,0.00
2022-10-22T20:51:55.828Z,0.00
2022-10-22T20:52:55.822Z,0.00
2022-10-22T20:53:55.804Z,0.00
2022-10-22T20:54:55.801Z,0.00
2022-10-22T20:55:55.788Z,0.00
2022-10-22T20:56:55.775Z,0.00
2022-10-22T20:57:55.756Z,0.00
2022-10-22T20:58:55.746Z,0.00
2022-10-22T20:59:55.745Z,0.00
2022-10-22T21:00:55.821Z,0.00
2022-10-22T21:01:55.910Z,0.00
2022-10-22T21:02:55.698Z,0.00
2022-10-22T21:03:55.712Z,0.00
2022-10-22T21:04:55.693Z,0.00
2022-10-22T21:05:55.667Z,0.00
2022-10-22T21:06:55.663Z,0.00
2022-10-22T21:07:55.661Z,0.00
2022-10-22T21:08:55.710Z,0.00
2022-10-22T21:09:55.635Z,0.00
2022-10-22T21:10:55.632Z,0.00
2022-10-22T21:11:55.796Z,0.00
2022-10-22T21:12:55.604Z,0.00
2022-10-22T21:13:55.588Z,0.00
2022-10-22T21:14:55.582Z,0.00
2022-10-22T21:15:55.582Z,0.00
2022-10-22T21:16:55.559Z,0.00
2022-10-22T21:17:55.560Z,0.00
2022-10-22T21:18:55.538Z,0.00
2022-10-22T21:19:55.523Z,0.00
2022-10-22T21:20:55.530Z,0.00
2022-10-22T21:21:55.506Z,0.00
2022-10-22T21:22:55.504Z,0.00
2022-10-22T21:23:55.499Z,0.00
2022-10-22T21:24:55.457Z,0.00
2022-10-22T21:25:55.470Z,0.00
2022-10-22T21:26:55.463Z,0.00
2022-10-22T21:27:55.438Z,0.00